createdAt,value
2023-03-19T00:00:53.918Z,80.44
2023-03-19T00:03:21.944Z,81.31
2023-03-19T00:05:55.231Z,82.68
2023-03-19T00:08:23.197Z,83.15
2023-03-19T00:10:51.080Z,82.84
2023-03-19T00:13:19.212Z,82.03
2023-03-19T00:15:47.763Z,82.37
2023-03-19T00:18:16.124Z,83.67
2023-03-19T00:20:44.243Z,83.32
2023-03-19T00:23:13.239Z,83.68
2023-03-19T00:25:40.795Z,83.79
2023-03-19T00:28:08.471Z,84.07
2023-03-19T00:30:36.375Z,84.09
2023-03-19T00:33:04.274Z,83.80
2023-03-19T00:35:32.689Z,83.84
2023-03-19T00:38:00.481Z,84.61
2023-03-19T00:40:29.407Z,84.88
2023-03-19T00:42:57.083Z,84.36
2023-03-19T00:45:24.812Z,84.34
2023-03-19T00:47:52.513Z,85.39
2023-03-19T00:50:20.415Z,85.51
2023-03-19T00:52:48.104Z,85.58
2023-03-19T00:55:15.679Z,86.23
2023-03-19T00:57:45.106Z,86.53
2023-03-19T01:02:43.566Z,87.25
2023-03-19T01:05:11.100Z,87.86
2023-03-19T01:07:40.850Z,87.33
2023-03-19T01:10:09.646Z,86.89
2023-03-19T01:12:37.461Z,87.00
2023-03-19T01:15:08.695Z,87.13
2023-03-19T01:17:36.944Z,87.51
2023-03-19T01:20:04.778Z,87.72
2023-03-19T01:22:33.516Z,88.72
2023-03-19T01:25:03.254Z,89.11
2023-03-19T01:27:30.866Z,89.57
2023-03-19T01:29:58.536Z,90.18
2023-03-19T01:32:27.863Z,89.16
2023-03-19T01:34:55.472Z,85.49
2023-03-19T01:37:23.155Z,79.24
2023-03-19T01:39:50.987Z,74.96
2023-03-19T01:42:18.761Z,72.79
2023-03-19T01:44:46.528Z,70.60
2023-03-19T01:47:19.008Z,70.31
2023-03-19T01:49:54.049Z,70.25
2023-03-19T01:52:22.981Z,70.31
2023-03-19T01:54:52.495Z,70.53
2023-03-19T01:57:21.124Z,70.30
2023-03-19T01:59:52.671Z,69.75
2023-03-19T02:02:25.190Z,69.28
2023-03-19T02:04:58.950Z,68.44
2023-03-19T02:07:27.423Z,68.23
2023-03-19T02:09:55.263Z,67.65
2023-03-19T02:12:23.166Z,67.41
2023-03-19T02:14:51.007Z,67.60
2023-03-19T02:17:18.878Z,67.06
2023-03-19T02:19:51.253Z,67.28
2023-03-19T02:22:23.217Z,67.20
2023-03-19T02:24:54.573Z,67.54
2023-03-19T02:27:24.723Z,67.40
2023-03-19T02:29:52.436Z,67.60
2023-03-19T02:32:20.271Z,67.74
2023-03-19T02:34:49.863Z,67.67
2023-03-19T02:37:22.026Z,67.27
2023-03-19T02:39:55.337Z,67.50
2023-03-19T02:42:26.893Z,67.96
2023-03-19T02:44:54.494Z,68.22
2023-03-19T02:47:22.065Z,67.67
2023-03-19T02:49:49.649Z,68.39
2023-03-19T02:52:18.235Z,70.04
2023-03-19T02:54:46.592Z,69.45
2023-03-19T02:57:14.584Z,69.12
2023-03-19T02:59:43.479Z,69.63
2023-03-19T03:02:11.329Z,69.68
2023-03-19T03:04:39.276Z,70.04
2023-03-19T03:07:07.389Z,70.29
2023-03-19T03:09:35.528Z,69.98
2023-03-19T03:12:03.258Z,70.03
2023-03-19T03:14:31.043Z,70.10
2023-03-19T03:17:00.953Z,70.73
2023-03-19T03:19:28.566Z,70.71
2023-03-19T03:21:56.283Z,71.13
2023-03-19T03:24:24.213Z,71.69
2023-03-19T03:26:51.787Z,72.57
2023-03-19T03:29:19.740Z,74.37
2023-03-19T03:31:47.313Z,74.86
2023-03-19T03:34:16.298Z,76.30
2023-03-19T03:36:43.951Z,76.83
2023-03-19T03:39:11.722Z,76.67
2023-03-19T03:41:39.492Z,77.16
2023-03-19T03:44:07.067Z,77.11
2023-03-19T03:46:34.603Z,76.63
2023-03-19T03:49:02.707Z,77.02
2023-03-19T03:51:31.716Z,76.49
2023-03-19T03:53:59.305Z,76.17
2023-03-19T03:56:27.120Z,76.69
2023-03-19T03:58:54.867Z,76.96
2023-03-19T04:01:22.648Z,76.96
2023-03-19T04:03:50.461Z,77.00
2023-03-19T04:06:20.739Z,76.58
2023-03-19T04:08:49.903Z,75.70
2023-03-19T04:11:19.221Z,75.03
2023-03-19T04:13:46.903Z,74.94
2023-03-19T04:16:15.555Z,74.37
2023-03-19T04:18:43.293Z,73.02
2023-03-19T04:21:10.827Z,73.15
2023-03-19T04:23:38.659Z,73.39
2023-03-19T04:26:08.313Z,73.06
2023-03-19T04:28:37.415Z,72.68
2023-03-19T04:31:08.026Z,71.86
2023-03-19T04:33:36.585Z,71.04
2023-03-19T04:36:05.002Z,71.36
2023-03-19T04:38:32.834Z,71.01
2023-03-19T04:41:01.700Z,71.26
2023-03-19T04:43:31.029Z,71.22
2023-03-19T04:45:59.406Z,72.28
2023-03-19T04:48:27.430Z,71.72
2023-03-19T04:50:57.052Z,72.48
2023-03-19T04:53:25.581Z,72.50
2023-03-19T04:55:53.253Z,72.57
2023-03-19T04:58:21.427Z,73.18
2023-03-19T05:00:50.504Z,73.58
2023-03-19T05:03:18.355Z,74.09
2023-03-19T05:05:46.403Z,74.62
2023-03-19T05:08:14.213Z,74.15
2023-03-19T05:10:41.852Z,73.87
2023-03-19T05:13:09.470Z,73.75
2023-03-19T05:15:37.141Z,74.31
2023-03-19T05:18:06.265Z,73.44
2023-03-19T05:20:34.270Z,73.55
2023-03-19T05:23:02.782Z,73.31
2023-03-19T05:25:30.580Z,73.66
2023-03-19T05:27:58.443Z,74.25
2023-03-19T05:30:27.158Z,74.01
2023-03-19T05:32:57.074Z,74.01
2023-03-19T05:35:26.197Z,74.09
2023-03-19T05:37:53.856Z,74.40
2023-03-19T05:40:22.132Z,75.07
2023-03-19T05:42:50.064Z,74.97
2023-03-19T05:45:18.483Z,75.14
2023-03-19T05:47:49.033Z,74.87
2023-03-19T05:50:17.490Z,74.21
2023-03-19T05:52:46.535Z,74.43
2023-03-19T05:55:14.234Z,74.53
2023-03-19T05:57:42.874Z,75.36
2023-03-19T06:00:12.079Z,74.82
2023-03-19T06:02:40.021Z,74.54
2023-03-19T06:05:08.462Z,74.74
2023-03-19T06:07:36.239Z,74.24
2023-03-19T06:10:06.550Z,73.97
2023-03-19T06:12:34.150Z,73.91
2023-03-19T06:15:02.195Z,74.34
2023-03-19T06:17:29.913Z,73.15
2023-03-19T06:19:57.648Z,73.91
2023-03-19T06:22:25.341Z,72.84
2023-03-19T06:24:52.951Z,72.05
2023-03-19T06:27:21.916Z,72.19
2023-03-19T06:29:49.437Z,71.66
2023-03-19T06:32:16.945Z,71.10
2023-03-19T06:34:47.351Z,71.67
2023-03-19T06:37:14.915Z,70.83
2023-03-19T06:39:43.352Z,71.29
2023-03-19T06:42:11.169Z,70.96
2023-03-19T06:44:40.159Z,71.04
2023-03-19T06:47:08.509Z,72.44
2023-03-19T06:49:36.193Z,70.99
2023-03-19T06:52:04.078Z,70.38
2023-03-19T06:54:31.983Z,70.71
2023-03-19T06:57:00.097Z,70.32
2023-03-19T06:59:27.758Z,70.20
2023-03-19T07:01:56.630Z,69.98
2023-03-19T07:04:24.400Z,68.90
2023-03-19T07:06:51.947Z,68.91
2023-03-19T07:09:19.549Z,67.81
2023-03-19T07:11:47.179Z,67.79
2023-03-19T07:14:14.793Z,68.15
2023-03-19T07:16:42.519Z,67.80
2023-03-19T07:19:11.680Z,67.64
2023-03-19T07:21:39.264Z,66.68
2023-03-19T07:24:07.520Z,66.49
2023-03-19T07:26:35.224Z,65.56
2023-03-19T07:29:03.811Z,65.18
2023-03-19T07:31:31.473Z,65.26
2023-03-19T07:33:59.123Z,63.55
2023-03-19T07:36:28.217Z,62.68
2023-03-19T07:38:57.406Z,60.65
2023-03-19T07:41:25.056Z,59.80
2023-03-19T07:43:52.662Z,59.76
2023-03-19T07:46:20.515Z,59.90
2023-03-19T07:48:48.084Z,60.04
2023-03-19T07:51:15.624Z,59.85
2023-03-19T07:53:44.797Z,58.97
2023-03-19T07:56:13.366Z,58.64
2023-03-19T07:58:41.010Z,59.02
2023-03-19T08:01:08.991Z,59.42
2023-03-19T08:03:36.654Z,60.22
2023-03-19T08:06:04.694Z,59.62
2023-03-19T08:08:34.783Z,60.68
2023-03-19T08:11:06.630Z,61.08
2023-03-19T08:13:34.661Z,60.06
2023-03-19T08:16:02.297Z,59.12
2023-03-19T08:18:29.904Z,59.04
2023-03-19T08:20:57.513Z,58.92
2023-03-19T08:23:26.159Z,58.81
2023-03-19T08:25:54.656Z,58.37
2023-03-19T08:28:25.450Z,58.11
2023-03-19T08:30:53.212Z,57.46
2023-03-19T08:33:20.783Z,56.84
2023-03-19T08:35:50.405Z,56.36
2023-03-19T08:38:18.486Z,56.09
2023-03-19T08:40:46.167Z,55.47
2023-03-19T08:43:14.060Z,54.08
2023-03-19T08:45:42.978Z,54.95
2023-03-19T08:48:11.889Z,54.09
2023-03-19T08:50:39.436Z,53.26
2023-03-19T08:53:07.048Z,54.30
2023-03-19T08:55:34.578Z,53.51
2023-03-19T08:58:02.259Z,52.88
2023-03-19T09:00:30.038Z,53.35
2023-03-19T09:02:59.069Z,52.83
2023-03-19T09:05:29.305Z,51.78
2023-03-19T09:07:57.308Z,51.61
2023-03-19T09:10:24.909Z,50.71
2023-03-19T09:12:52.483Z,50.02
2023-03-19T09:15:20.339Z,52.21
2023-03-19T09:17:47.988Z,52.44
2023-03-19T09:20:17.303Z,52.18
2023-03-19T09:22:45.087Z,52.04
2023-03-19T09:25:13.214Z,52.94
2023-03-19T09:27:40.855Z,53.10
2023-03-19T09:30:10.477Z,53.93
2023-03-19T09:32:39.462Z,53.94
2023-03-19T09:35:08.627Z,54.66
2023-03-19T09:37:37.735Z,54.77
2023-03-19T09:40:08.106Z,53.72
2023-03-19T09:42:53.571Z,52.91
2023-03-19T09:45:21.536Z,53.87
2023-03-19T09:47:55.751Z,53.89
2023-03-19T09:50:28.922Z,53.58
2023-03-19T09:53:06.470Z,53.30
2023-03-19T09:55:42.373Z,53.35
2023-03-19T09:58:15.823Z,52.66
2023-03-19T10:00:45.376Z,51.93
2023-03-19T10:03:28.976Z,51.95
2023-03-19T10:06:06.762Z,51.41
2023-03-19T10:08:50.419Z,51.26
2023-03-19T10:11:34.231Z,50.33
2023-03-19T10:14:17.004Z,50.39
2023-03-19T10:16:50.076Z,50.63
2023-03-19T10:19:23.083Z,50.49
2023-03-19T10:21:55.585Z,50.28
2023-03-19T10:24:31.250Z,50.03
2023-03-19T10:27:02.926Z,50.83
2023-03-19T10:29:30.585Z,50.83
2023-03-19T10:32:10.283Z,50.88
2023-03-19T10:34:41.983Z,51.71
2023-03-19T10:37:17.167Z,50.92
2023-03-19T10:39:47.259Z,51.51
2023-03-19T10:42:27.305Z,50.87
2023-03-19T10:45:01.450Z,49.82
2023-03-19T10:47:29.150Z,50.47
2023-03-19T10:49:57.577Z,50.30
2023-03-19T10:52:29.397Z,49.01
2023-03-19T10:55:03.751Z,49.32
2023-03-19T10:57:32.061Z,49.71
2023-03-19T11:00:05.352Z,47.62
2023-03-19T11:02:33.545Z,47.96
2023-03-19T11:05:17.032Z,47.81
2023-03-19T11:07:44.914Z,46.83
2023-03-19T11:10:17.078Z,47.35
2023-03-19T11:12:49.701Z,48.00
2023-03-19T11:15:21.801Z,47.79
2023-03-19T11:17:56.561Z,49.53
2023-03-19T11:20:30.046Z,48.16
2023-03-19T11:23:02.614Z,48.13
2023-03-19T11:25:35.686Z,47.34
2023-03-19T11:28:10.176Z,47.45
2023-03-19T11:30:44.482Z,47.64
2023-03-19T11:33:36.325Z,46.39
2023-03-19T11:36:13.057Z,46.50
2023-03-19T11:38:51.099Z,46.31
2023-03-19T11:41:30.854Z,46.11
2023-03-19T11:44:04.330Z,47.67
2023-03-19T11:46:39.691Z,47.12
2023-03-19T11:49:41.324Z,47.27
2023-03-19T11:52:17.737Z,48.14
2023-03-19T11:54:57.411Z,45.19
2023-03-19T11:57:33.462Z,45.34
2023-03-19T12:00:09.809Z,44.85
2023-03-19T12:03:18.347Z,46.30
2023-03-19T12:05:56.060Z,46.22
2023-03-19T12:08:32.450Z,46.85
2023-03-19T12:11:11.165Z,46.00
2023-03-19T12:13:52.914Z,45.52
2023-03-19T12:16:31.322Z,46.37
2023-03-19T12:19:11.964Z,46.96
2023-03-19T12:21:54.905Z,47.08
2023-03-19T12:24:33.659Z,47.07
2023-03-19T12:27:19.890Z,48.17
2023-03-19T12:29:58.090Z,46.81
2023-03-19T12:32:39.875Z,47.11
2023-03-19T12:35:13.799Z,48.11
2023-03-19T12:37:47.707Z,48.76
2023-03-19T12:40:28.293Z,49.62
2023-03-19T12:42:59.147Z,49.29
2023-03-19T12:45:33.230Z,49.01
2023-03-19T12:48:07.129Z,48.54
2023-03-19T12:50:38.197Z,49.38
2023-03-19T12:53:11.926Z,47.92
2023-03-19T12:55:43.824Z,47.68
2023-03-19T12:58:20.760Z,47.49
2023-03-19T13:00:59.638Z,48.16
2023-03-19T13:03:35.065Z,48.40
2023-03-19T13:06:08.496Z,49.25
2023-03-19T13:08:40.731Z,49.25
2023-03-19T13:11:14.520Z,50.15
2023-03-19T13:13:49.444Z,49.77
2023-03-19T13:16:31.836Z,50.31
2023-03-19T13:19:08.728Z,51.01
2023-03-19T13:21:38.757Z,50.48
2023-03-19T13:24:17.244Z,50.85
2023-03-19T13:26:46.244Z,51.57
2023-03-19T13:29:19.922Z,53.75
2023-03-19T13:31:49.733Z,55.57
2023-03-19T13:34:26.026Z,56.65
2023-03-19T13:37:01.582Z,57.32
2023-03-19T13:39:32.635Z,58.71
2023-03-19T13:42:37.231Z,60.24
2023-03-19T13:45:29.641Z,60.69
2023-03-19T13:48:24.420Z,60.94
2023-03-19T13:50:57.042Z,62.47
2023-03-19T13:53:38.221Z,62.49
2023-03-19T13:56:15.935Z,64.44
2023-03-19T13:59:18.888Z,65.69
2023-03-19T14:01:47.292Z,66.04
2023-03-19T14:04:25.269Z,66.71
2023-03-19T14:06:57.151Z,65.53
2023-03-19T14:09:36.455Z,62.03
2023-03-19T14:12:22.771Z,61.71
2023-03-19T14:14:53.252Z,62.01
2023-03-19T14:17:23.505Z,61.75
2023-03-19T14:19:53.155Z,61.82
2023-03-19T14:22:38.154Z,62.21
2023-03-19T14:25:17.898Z,64.20
2023-03-19T14:27:48.951Z,66.35
2023-03-19T14:30:30.371Z,67.48
2023-03-19T14:33:02.355Z,69.62
2023-03-19T14:35:33.309Z,69.87
2023-03-19T14:38:03.003Z,70.32
2023-03-19T14:40:39.958Z,71.22
2023-03-19T14:43:16.439Z,71.06
2023-03-19T14:45:55.705Z,71.98
2023-03-19T14:48:51.698Z,71.25
2023-03-19T14:51:34.824Z,69.47
2023-03-19T14:54:13.454Z,69.96
2023-03-19T14:56:41.490Z,71.11
2023-03-19T14:59:15.199Z,70.71
2023-03-19T15:01:50.558Z,70.78
2023-03-19T15:04:21.525Z,70.36
2023-03-19T15:06:54.111Z,69.43
2023-03-19T15:09:29.584Z,69.20
2023-03-19T15:12:28.094Z,70.01
2023-03-19T15:15:12.666Z,69.33
2023-03-19T15:17:40.203Z,70.77
2023-03-19T15:20:18.339Z,70.65
2023-03-19T15:22:47.888Z,70.25
2023-03-19T15:25:17.078Z,70.18
2023-03-19T15:27:44.866Z,70.04
2023-03-19T15:30:24.776Z,70.43
2023-03-19T15:33:07.711Z,70.53
2023-03-19T15:35:37.702Z,69.72
2023-03-19T15:38:10.048Z,68.53
2023-03-19T15:40:41.996Z,68.64
2023-03-19T15:43:12.683Z,68.46
2023-03-19T15:45:43.962Z,67.69
2023-03-19T15:48:19.487Z,67.94
2023-03-19T15:50:49.268Z,67.50
2023-03-19T15:53:19.430Z,68.51
2023-03-19T15:55:50.321Z,68.89
2023-03-19T15:58:22.433Z,68.24
2023-03-19T16:00:52.695Z,67.10
2023-03-19T16:03:23.694Z,66.36
2023-03-19T16:06:02.657Z,65.57
2023-03-19T16:08:31.808Z,65.10
2023-03-19T16:11:17.136Z,65.44
2023-03-19T16:13:56.895Z,64.72
2023-03-19T16:16:26.310Z,64.03
2023-03-19T16:18:55.767Z,64.68
2023-03-19T16:21:28.922Z,65.28
2023-03-19T16:24:00.374Z,65.53
2023-03-19T16:26:37.140Z,66.64
2023-03-19T16:29:11.115Z,66.89
2023-03-19T16:31:45.905Z,65.36
2023-03-19T16:34:27.439Z,65.22
2023-03-19T16:36:55.736Z,65.31
2023-03-19T16:39:27.393Z,65.78
2023-03-19T16:42:29.488Z,66.38
2023-03-19T16:44:58.007Z,66.66
2023-03-19T16:47:25.741Z,66.99
2023-03-19T16:49:53.596Z,67.89
2023-03-19T16:52:24.030Z,67.91
2023-03-19T16:54:52.823Z,68.22
2023-03-19T16:57:22.398Z,67.34
2023-03-19T16:59:50.062Z,65.89
2023-03-19T17:02:18.869Z,66.32
2023-03-19T17:04:47.491Z,66.72
2023-03-19T17:07:15.279Z,67.50
2023-03-19T17:09:42.945Z,67.89
2023-03-19T17:12:16.198Z,68.38
2023-03-19T17:14:46.931Z,69.19
2023-03-19T17:17:19.385Z,69.67
2023-03-19T17:19:48.111Z,69.69
2023-03-19T17:22:16.043Z,69.78
2023-03-19T17:24:44.132Z,70.86
2023-03-19T17:27:11.788Z,71.55
2023-03-19T17:29:39.499Z,72.18
2023-03-19T17:32:25.335Z,73.16
2023-03-19T17:34:53.077Z,74.11
2023-03-19T17:37:20.784Z,74.64
2023-03-19T17:39:48.524Z,75.78
2023-03-19T17:42:20.981Z,76.27
2023-03-19T17:44:48.696Z,78.06
2023-03-19T17:47:19.056Z,78.30
2023-03-19T17:49:48.571Z,78.50
2023-03-19T17:52:17.996Z,78.81
2023-03-19T17:54:46.233Z,79.53
2023-03-19T17:57:15.683Z,80.13
2023-03-19T17:59:43.390Z,80.44
2023-03-19T18:02:26.171Z,80.83
2023-03-19T18:04:53.972Z,81.31
2023-03-19T18:07:21.713Z,82.04
2023-03-19T18:09:49.312Z,82.98
2023-03-19T18:12:16.969Z,83.63
2023-03-19T18:14:44.645Z,84.53
2023-03-19T18:17:16.456Z,84.33
2023-03-19T18:19:46.665Z,85.11
2023-03-19T18:22:16.458Z,85.17
2023-03-19T18:24:45.957Z,84.89
2023-03-19T18:27:13.746Z,85.12
2023-03-19T18:29:41.576Z,85.41
2023-03-19T18:32:18.781Z,85.57
2023-03-19T18:34:49.903Z,86.13
2023-03-19T18:37:19.222Z,86.38
2023-03-19T18:39:46.890Z,87.16
2023-03-19T18:42:15.354Z,88.24
2023-03-19T18:44:43.299Z,88.38
2023-03-19T18:47:14.788Z,89.36
2023-03-19T18:49:42.874Z,90.11
2023-03-19T18:52:18.580Z,90.98
2023-03-19T18:54:48.196Z,91.75
2023-03-19T18:57:16.933Z,92.42
2023-03-19T18:59:45.021Z,93.33
2023-03-19T19:02:31.217Z,93.84
2023-03-19T19:04:59.192Z,94.45
2023-03-19T19:07:28.306Z,94.65
2023-03-19T19:09:55.977Z,94.78
2023-03-19T19:12:23.643Z,95.37
2023-03-19T19:14:51.754Z,95.50
2023-03-19T19:17:31.456Z,95.85
2023-03-19T19:20:01.423Z,95.99
2023-03-19T19:22:38.112Z,96.15
2023-03-19T19:25:06.384Z,97.35
2023-03-19T19:27:34.401Z,97.52
2023-03-19T19:30:03.679Z,97.92
2023-03-19T19:32:35.228Z,98.03
2023-03-19T19:35:03.710Z,98.10
2023-03-19T19:37:32.703Z,97.79
2023-03-19T19:40:00.538Z,97.39
2023-03-19T19:42:29.239Z,97.76
2023-03-19T19:44:58.792Z,97.48
2023-03-19T19:47:26.390Z,97.24
2023-03-19T19:49:54.215Z,97.37
2023-03-19T19:52:21.918Z,97.50
2023-03-19T19:54:52.011Z,97.67
2023-03-19T19:57:22.479Z,97.74
2023-03-19T19:59:51.636Z,98.46
2023-03-19T20:02:23.316Z,98.29
2023-03-19T20:04:51.303Z,98.40
2023-03-19T20:07:19.092Z,100.00
2023-03-19T20:09:46.776Z,100.00
2023-03-19T20:12:20.453Z,97.18
2023-03-19T20:14:49.843Z,96.05
2023-03-19T20:17:18.670Z,95.58
2023-03-19T20:19:46.307Z,95.52
2023-03-19T20:22:14.025Z,95.59
2023-03-19T20:24:41.894Z,95.53
2023-03-19T20:27:21.239Z,95.83
2023-03-19T20:29:50.538Z,96.26
2023-03-19T20:32:28.069Z,96.38
2023-03-19T20:34:55.892Z,96.87
2023-03-19T20:37:23.824Z,96.63
2023-03-19T20:39:51.442Z,96.75
2023-03-19T20:42:21.728Z,96.90
2023-03-19T20:44:49.510Z,97.32
2023-03-19T20:47:19.605Z,98.03
2023-03-19T20:49:48.352Z,98.44
2023-03-19T20:52:16.431Z,99.12
2023-03-19T20:54:44.671Z,99.44
2023-03-19T20:57:14.655Z,98.56
2023-03-19T20:59:46.779Z,98.83
2023-03-19T21:02:27.465Z,98.64
2023-03-19T21:04:55.535Z,98.70
2023-03-19T21:07:29.381Z,98.88
2023-03-19T21:10:01.534Z,99.24
2023-03-19T21:12:36.108Z,99.33
2023-03-19T21:15:07.777Z,99.54
2023-03-19T21:17:36.354Z,99.19
2023-03-19T21:20:04.412Z,99.20
2023-03-19T21:22:33.516Z,98.75
2023-03-19T21:25:04.924Z,98.96
2023-03-19T21:27:35.742Z,99.39
2023-03-19T21:30:07.823Z,99.88
2023-03-19T21:32:35.797Z,99.45
2023-03-19T21:35:03.721Z,99.67
2023-03-19T21:37:33.521Z,99.61
2023-03-19T21:40:02.062Z,99.72
2023-03-19T21:42:31.716Z,99.23
2023-03-19T21:45:00.506Z,98.85
2023-03-19T21:47:29.537Z,99.23
2023-03-19T21:50:00.193Z,99.73
2023-03-19T21:52:28.067Z,100.00
2023-03-19T21:54:55.922Z,100.00
2023-03-19T21:57:24.010Z,100.00
2023-03-19T21:59:51.594Z,100.00
2023-03-19T22:02:41.326Z,100.00
2023-03-19T22:05:25.282Z,100.00
2023-03-19T22:07:54.751Z,100.00
2023-03-19T22:10:25.446Z,100.00
2023-03-19T22:12:53.612Z,100.00
2023-03-19T22:15:26.886Z,99.71
2023-03-19T22:17:56.107Z,98.65
2023-03-19T22:20:25.605Z,97.97
2023-03-19T22:22:53.661Z,97.94
2023-03-19T22:25:22.954Z,98.11
2023-03-19T22:27:51.674Z,98.27
2023-03-19T22:30:30.136Z,98.48
2023-03-19T22:32:59.940Z,97.82
2023-03-19T22:35:28.423Z,98.40
2023-03-19T22:37:56.168Z,98.62
2023-03-19T22:40:23.773Z,98.82
2023-03-19T22:42:51.379Z,100.00
2023-03-19T22:45:25.354Z,100.00
2023-03-19T22:47:53.806Z,100.00
2023-03-19T22:50:26.021Z,100.00
2023-03-19T22:52:54.005Z,100.00
2023-03-19T22:55:22.933Z,100.00
2023-03-19T22:57:51.132Z,100.00
2023-03-19T23:00:21.199Z,100.00
2023-03-19T23:02:55.928Z,100.00
2023-03-19T23:05:33.298Z,100.00
2023-03-19T23:08:01.193Z,100.00
2023-03-19T23:10:30.688Z,100.00
2023-03-19T23:12:58.283Z,100.00
2023-03-19T23:15:28.449Z,100.00
2023-03-19T23:17:59.685Z,100.00
2023-03-19T23:20:33.685Z,100.00
2023-03-19T23:23:02.211Z,100.00
2023-03-19T23:25:30.702Z,100.00
2023-03-19T23:28:01.703Z,100.00
2023-03-19T23:30:31.790Z,100.00
2023-03-19T23:33:02.649Z,100.00
2023-03-19T23:35:32.305Z,100.00
2023-03-19T23:38:01.684Z,100.00
2023-03-19T23:40:33.062Z,100.00
2023-03-19T23:43:02.425Z,100.00
2023-03-19T23:45:37.283Z,100.00
2023-03-19T23:48:06.808Z,100.00
2023-03-19T23:50:36.598Z,100.00
2023-03-19T23:53:04.529Z,100.00
2023-03-19T23:55:34.177Z,100.00
2023-03-19T23:58:02.901Z,100.00
